Time,TemperatureF,DewpointF,PressureIn,WindDirection,WindDirectionDegrees,WindSpeedMPH,WindSpeedGustMPH,Humidity,HourlyPrecipIn,Conditions,Clouds,dailyrainin,SoftwareType,DateUTC
2013-09-04 00:01:00,56.3,47.8,31.87,NNW,338,0.0,0.0,73,0.00,,,0.00,VWS V14.01,2013-09-04 04:01:00,
2013-09-04 00:02:00,56.3,47.8,31.87,NNW,338,0.0,0.0,73,0.00,,,0.00,VWS V14.01,2013-09-04 04:02:00,
2013-09-04 00:03:00,56.3,47.8,31.87,NNW,338,0.0,0.0,73,0.00,,,0.00,VWS V14.01,2013-09-04 04:03:00,
2013-09-04 00:04:00,56.3,47.8,31.87,NNW,338,0.0,0.0,73,0.00,,,0.00,VWS V14.01,2013-09-04 04:04:00,
2013-09-04 00:11:00,56.1,47.6,31.87,NNW,338,0.0,0.0,73,0.00,,,0.00,VWS V14.01,2013-09-04 04:11:00,
2013-09-04 00:16:00,56.1,48.0,31.87,NNW,338,0.0,0.0,74,0.00,,,0.00,VWS V14.01,2013-09-04 04:16:00,
2013-09-04 00:18:00,55.9,47.8,31.87,NNW,338,0.0,0.0,74,0.00,,,0.00,VWS V14.01,2013-09-04 04:18:00,
2013-09-04 00:23:00,55.9,47.8,31.87,NNW,338,0.0,0.0,74,0.00,,,0.00,VWS V14.01,2013-09-04 04:23:00,
2013-09-04 00:29:00,55.9,47.8,31.87,NNW,338,0.0,0.0,74,0.00,,,0.00,VWS V14.01,2013-09-04 04:29:00,
2013-09-04 00:36:00,55.9,47.8,31.87,NNW,338,0.0,0.0,74,0.00,,,0.00,VWS V14.01,2013-09-04 04:36:00,
2013-09-04 00:42:00,55.9,48.1,31.87,NNW,338,0.0,0.0,75,0.00,,,0.00,VWS V14.01,2013-09-04 04:42:00,
2013-09-04 00:47:00,55.8,48.0,31.87,NNW,338,0.0,0.0,75,0.00,,,0.00,VWS V14.01,2013-09-04 04:47:00,
2013-09-04 00:52:00,55.6,47.8,31.87,NNW,338,0.0,0.0,75,0.00,,,0.00,VWS V14.01,2013-09-04 04:52:00,
2013-09-04 00:57:00,55.6,47.8,31.87,NNW,338,0.0,0.0,75,0.00,,,0.00,VWS V14.01,2013-09-04 04:57:00,
2013-09-04 01:03:00,55.6,47.8,31.87,NNW,338,0.0,0.0,75,0.00,,,0.00,VWS V14.01,2013-09-04 05:03:00,
2013-09-04 01:08:00,55.8,48.0,31.87,NNW,338,0.0,0.0,75,0.00,,,0.00,VWS V14.01,2013-09-04 05:08:00,
2013-09-04 01:14:00,55.6,47.8,31.87,NNW,338,0.0,0.0,75,0.00,,,0.00,VWS V14.01,2013-09-04 05:14:00,
2013-09-04 01:19:00,55.4,48.0,31.87,NNW,338,0.0,0.0,76,0.00,,,0.00,VWS V14.01,2013-09-04 05:19:00,
2013-09-04 01:25:00,55.4,48.0,31.87,NNW,338,0.0,0.0,76,0.00,,,0.00,VWS V14.01,2013-09-04 05:25:00,
2013-09-04 01:31:00,55.4,48.0,31.87,NNW,338,0.0,0.0,76,0.00,,,0.00,VWS V14.01,2013-09-04 05:31:00,
2013-09-04 01:37:00,55.2,48.2,31.87,NNW,338,0.0,0.0,77,0.00,,,0.00,VWS V14.01,2013-09-04 05:37:00,
2013-09-04 01:42:00,55.2,48.2,31.87,NNW,338,0.0,0.0,77,0.00,,,0.00,VWS V14.01,2013-09-04 05:42:00,
2013-09-04 01:48:00,55.2,48.2,31.87,NNW,338,0.0,0.0,77,0.00,,,0.00,VWS V14.01,2013-09-04 05:48:00,
2013-09-04 01:53:00,55.0,48.0,31.87,NNW,338,0.0,0.0,77,0.00,,,0.00,VWS V14.01,2013-09-04 05:53:00,
2013-09-04 01:59:00,55.0,48.0,31.87,NNW,338,0.0,0.0,77,0.00,,,0.00,VWS V14.01,2013-09-04 05:59:00,
2013-09-04 02:04:00,55.0,48.3,31.87,NNW,338,0.0,0.0,78,0.00,,,0.00,VWS V14.01,2013-09-04 06:04:00,
2013-09-04 02:09:00,55.0,48.3,31.87,NNW,338,0.0,0.0,78,0.00,,,0.00,VWS V14.01,2013-09-04 06:09:00,
2013-09-04 02:14:00,55.0,48.3,31.87,NNW,338,0.0,0.0,78,0.00,,,0.00,VWS V14.01,2013-09-04 06:14:00,
2013-09-04 02:20:00,54.9,48.1,31.87,NNW,338,0.0,0.0,78,0.00,,,0.00,VWS V14.01,2013-09-04 06:20:00,
2013-09-04 02:26:00,54.9,48.5,31.87,NNW,338,0.0,0.0,79,0.00,,,0.00,VWS V14.01,2013-09-04 06:26:00,
2013-09-04 02:32:00,54.7,48.3,31.87,NNW,338,0.0,0.0,79,0.00,,,0.00,VWS V14.01,2013-09-04 06:32:00,
2013-09-04 02:38:00,54.5,48.1,31.87,NNW,338,0.0,0.0,79,0.00,,,0.00,VWS V14.01,2013-09-04 06:38:00,
2013-09-04 02:44:00,54.5,47.8,31.87,NNW,338,0.0,0.0,78,0.00,,,0.00,VWS V14.01,2013-09-04 06:44:00,
2013-09-04 02:49:00,54.5,47.8,31.87,NNW,338,0.0,0.0,78,0.00,,,0.00,VWS V14.01,2013-09-04 06:49:00,
2013-09-04 02:56:00,54.3,47.6,31.87,NNW,338,0.0,0.0,78,0.00,,,0.00,VWS V14.01,2013-09-04 06:56:00,
2013-09-04 03:01:00,54.3,47.6,31.87,NNW,338,0.0,0.0,78,0.00,,,0.00,VWS V14.01,2013-09-04 07:01:00,
2013-09-04 03:07:00,54.1,47.8,31.87,NNW,338,0.0,0.0,79,0.00,,,0.00,VWS V14.01,2013-09-04 07:07:00,
2013-09-04 03:13:00,54.0,47.6,31.87,NNW,338,0.0,0.0,79,0.00,,,0.00,VWS V14.01,2013-09-04 07:13:00,
2013-09-04 03:18:00,54.0,47.3,31.87,NNW,338,0.0,0.0,78,0.00,,,0.00,VWS V14.01,2013-09-04 07:18:00,
2013-09-04 03:24:00,54.0,47.6,31.87,NNW,338,0.0,0.0,79,0.00,,,0.00,VWS V14.01,2013-09-04 07:24:00,
2013-09-04 03:29:00,54.0,47.6,31.87,NNW,338,0.0,0.0,79,0.00,,,0.00,VWS V14.01,2013-09-04 07:29:00,
2013-09-04 03:34:00,54.0,47.6,31.87,NNW,338,0.0,0.0,79,0.00,,,0.00,VWS V14.01,2013-09-04 07:34:00,
2013-09-04 03:39:00,53.8,47.4,31.87,NNW,338,0.0,0.0,79,0.00,,,0.00,VWS V14.01,2013-09-04 07:39:00,
2013-09-04 03:45:00,53.6,47.3,31.87,NNW,338,0.0,0.0,79,0.00,,,0.00,VWS V14.01,2013-09-04 07:45:00,
2013-09-04 03:51:00,53.6,47.3,31.87,NNW,338,0.0,0.0,79,0.00,,,0.00,VWS V14.01,2013-09-04 07:51:00,
2013-09-04 03:56:00,53.6,47.3,31.87,NNW,338,0.0,0.0,79,0.00,,,0.00,VWS V14.01,2013-09-04 07:56:00,
2013-09-04 04:02:00,53.6,47.3,31.87,NNW,338,0.0,0.0,79,0.00,,,0.00,VWS V14.01,2013-09-04 08:02:00,
2013-09-04 04:07:00,53.6,47.3,31.87,NNW,338,0.0,0.0,79,0.00,,,0.00,VWS V14.01,2013-09-04 08:07:00,
2013-09-04 04:13:00,53.6,47.6,31.87,NNW,338,0.0,0.0,80,0.00,,,0.00,VWS V14.01,2013-09-04 08:13:00,
2013-09-04 04:19:00,53.4,47.4,31.87,NNW,338,0.0,0.0,80,0.00,,,0.00,VWS V14.01,2013-09-04 08:19:00,
2013-09-04 04:24:00,53.1,47.1,31.87,NNW,338,0.0,0.0,80,0.00,,,0.00,VWS V14.01,2013-09-04 08:24:00,
2013-09-04 04:29:00,52.9,46.9,31.87,NNW,338,0.0,0.0,80,0.00,,,0.00,VWS V14.01,2013-09-04 08:29:00,
2013-09-04 04:34:00,52.7,46.7,31.87,NNW,338,0.0,0.0,80,0.00,,,0.00,VWS V14.01,2013-09-04 08:34:00,
2013-09-04 04:40:00,52.5,46.5,31.87,NNW,338,0.0,0.0,80,0.00,,,0.00,VWS V14.01,2013-09-04 08:40:00,
2013-09-04 04:45:00,52.5,46.5,31.87,NNW,338,0.0,0.0,80,0.00,,,0.00,VWS V14.01,2013-09-04 08:45:00,
2013-09-04 04:51:00,52.3,46.4,31.87,NNW,338,0.0,0.0,80,0.00,,,0.00,VWS V14.01,2013-09-04 08:51:00,
2013-09-04 04:56:00,52.5,46.5,31.87,NNW,338,0.0,0.0,80,0.00,,,0.00,VWS V14.01,2013-09-04 08:56:00,
2013-09-04 05:01:00,52.3,46.4,31.87,NNW,338,0.0,0.0,80,0.00,,,0.00,VWS V14.01,2013-09-04 09:01:00,
2013-09-04 05:06:00,52.2,46.2,31.87,NNW,338,0.0,0.0,80,0.00,,,0.00,VWS V14.01,2013-09-04 09:06:00,
2013-09-04 05:11:00,52.2,46.5,31.87,NNW,338,0.0,0.0,81,0.00,,,0.00,VWS V14.01,2013-09-04 09:11:00,
2013-09-04 05:17:00,52.2,46.5,31.87,NNW,338,0.0,0.0,81,0.00,,,0.00,VWS V14.01,2013-09-04 09:17:00,
2013-09-04 05:23:00,52.2,46.5,31.87,NNW,338,0.0,0.0,81,0.00,,,0.00,VWS V14.01,2013-09-04 09:23:00,
2013-09-04 05:28:00,52.3,46.7,31.87,NNW,338,0.0,0.0,81,0.00,,,0.00,VWS V14.01,2013-09-04 09:28:00,
2013-09-04 05:33:00,52.5,46.9,31.87,NNW,338,0.0,0.0,81,0.00,,,0.00,VWS V14.01,2013-09-04 09:33:00,
2013-09-04 05:38:00,52.5,47.2,31.87,NNW,338,0.0,0.0,82,0.00,,,0.00,VWS V14.01,2013-09-04 09:38:00,
2013-09-04 05:43:00,52.7,47.4,31.87,NNW,338,0.0,0.0,82,0.00,,,0.00,VWS V14.01,2013-09-04 09:43:00,
2013-09-04 05:49:00,52.9,47.5,31.87,NNW,338,0.0,0.0,82,0.00,,,0.00,VWS V14.01,2013-09-04 09:49:00,
2013-09-04 05:55:00,52.9,47.5,31.87,NNW,338,0.0,0.0,82,0.00,,,0.00,VWS V14.01,2013-09-04 09:55:00,
2013-09-04 06:01:00,52.9,47.5,31.87,NNW,338,0.0,0.0,82,0.00,,,0.00,VWS V14.01,2013-09-04 10:01:00,
2013-09-04 06:06:00,53.1,47.7,31.87,NNW,338,0.0,0.0,82,0.00,,,0.00,VWS V14.01,2013-09-04 10:06:00,
2013-09-04 06:12:00,53.1,47.7,31.87,NNW,338,0.0,0.0,82,0.00,,,0.00,VWS V14.01,2013-09-04 10:12:00,
2013-09-04 06:17:00,53.1,47.7,31.87,NNW,338,0.0,0.0,82,0.00,,,0.00,VWS V14.01,2013-09-04 10:17:00,
2013-09-04 06:22:00,53.1,47.7,31.87,NNW,338,0.0,0.0,82,0.00,,,0.00,VWS V14.01,2013-09-04 10:22:00,
2013-09-04 06:28:00,53.1,47.7,31.87,NNW,338,0.0,0.0,82,0.00,,,0.00,VWS V14.01,2013-09-04 10:28:00,
2013-09-04 06:33:00,53.1,47.7,31.87,NNW,338,0.0,0.0,82,0.00,,,0.00,VWS V14.01,2013-09-04 10:33:00,
2013-09-04 06:39:00,53.2,48.2,31.87,NNW,338,0.0,0.0,83,0.00,,,0.00,VWS V14.01,2013-09-04 10:39:00,
2013-09-04 06:46:00,53.2,48.2,31.87,NNW,338,0.0,0.0,83,0.00,,,0.00,VWS V14.01,2013-09-04 10:46:00,
2013-09-04 06:52:00,53.2,48.2,31.87,NNW,338,0.0,0.0,83,0.00,,,0.00,VWS V14.01,2013-09-04 10:52:00,
2013-09-04 06:57:00,53.2,48.2,31.87,NNW,338,0.0,0.0,83,0.00,,,0.00,VWS V14.01,2013-09-04 10:57:00,
2013-09-04 07:02:00,53.2,48.2,31.87,NNW,338,0.0,0.0,83,0.00,,,0.00,VWS V14.01,2013-09-04 11:02:00,
2013-09-04 07:07:00,53.2,48.2,31.87,NNW,338,0.0,0.0,83,0.00,,,0.00,VWS V14.01,2013-09-04 11:07:00,
2013-09-04 07:13:00,53.2,48.2,31.87,NNW,338,0.0,0.0,83,0.00,,,0.00,VWS V14.01,2013-09-04 11:13:00,
2013-09-04 07:18:00,53.2,48.2,31.87,NNW,338,0.0,0.0,83,0.00,,,0.00,VWS V14.01,2013-09-04 11:18:00,
2013-09-04 07:24:00,53.2,48.2,31.87,NNW,338,0.0,0.0,83,0.00,,,0.00,VWS V14.01,2013-09-04 11:24:00,
2013-09-04 07:31:00,53.2,48.2,31.87,NNW,338,0.0,0.0,83,0.00,,,0.00,VWS V14.01,2013-09-04 11:31:00,
2013-09-04 07:36:00,53.6,48.6,31.87,NNE,26,0.0,0.0,83,0.00,,,0.00,VWS V14.01,2013-09-04 11:36:00,
2013-09-04 07:42:00,54.0,48.9,31.87,NNE,26,0.0,0.0,83,0.00,,,0.00,VWS V14.01,2013-09-04 11:42:00,
2013-09-04 07:48:00,54.0,48.9,31.87,NNE,26,0.0,0.0,83,0.00,,,0.00,VWS V14.01,2013-09-04 11:48:00,
2013-09-04 07:53:00,54.1,49.4,31.87,WSW,249,0.0,0.0,84,0.00,,,0.00,VWS V14.01,2013-09-04 11:53:00,
2013-09-04 07:59:00,54.3,49.6,31.87,WSW,249,0.0,0.0,84,0.00,,,0.00,VWS V14.01,2013-09-04 11:59:00,
2013-09-04 08:04:00,54.5,49.8,31.87,WSW,249,0.0,0.0,84,0.00,,,0.00,VWS V14.01,2013-09-04 12:04:00,
2013-09-04 08:11:00,54.9,50.1,31.87,WSW,249,0.0,0.0,84,0.00,,,0.00,VWS V14.01,2013-09-04 12:11:00,
2013-09-04 08:16:00,55.0,50.3,31.87,WSW,249,0.0,0.0,84,0.00,,,0.00,VWS V14.01,2013-09-04 12:16:00,
2013-09-04 08:21:00,55.2,50.5,31.87,WSW,249,0.0,0.0,84,0.00,,,0.00,VWS V14.01,2013-09-04 12:21:00,
2013-09-04 08:27:00,55.6,50.8,31.87,WSW,249,0.0,0.0,84,0.00,,,0.00,VWS V14.01,2013-09-04 12:27:00,
2013-09-04 08:32:00,55.8,51.0,31.87,WSW,249,0.0,0.0,84,0.00,,,0.00,VWS V14.01,2013-09-04 12:32:00,
2013-09-04 08:38:00,56.1,51.4,31.87,WSW,249,0.0,0.0,84,0.00,,,0.00,VWS V14.01,2013-09-04 12:38:00,
2013-09-04 08:43:00,56.3,51.5,31.87,WSW,249,0.0,0.0,84,0.00,,,0.00,VWS V14.01,2013-09-04 12:43:00,
2013-09-04 08:48:00,56.7,51.9,31.87,SSW,213,0.0,0.0,84,0.00,,,0.00,VWS V14.01,2013-09-04 12:48:00,
2013-09-04 08:53:00,57.0,52.6,31.87,SSW,213,0.0,0.0,85,0.00,,,0.00,VWS V14.01,2013-09-04 12:53:00,
2013-09-04 08:58:00,57.4,52.6,31.87,SSW,213,0.0,0.0,84,0.00,,,0.00,VWS V14.01,2013-09-04 12:58:00,
2013-09-04 09:04:00,57.9,53.4,31.87,WNW,287,3.4,6.7,85,0.00,,,0.00,VWS V14.01,2013-09-04 13:04:00,
2013-09-04 09:09:00,58.3,53.8,31.87,WNW,287,0.0,0.0,85,0.00,,,0.00,VWS V14.01,2013-09-04 13:09:00,
2013-09-04 09:14:00,58.8,54.7,31.87,NNW,332,0.0,0.0,86,0.00,,,0.00,VWS V14.01,2013-09-04 13:14:00,
2013-09-04 09:19:00,59.2,55.0,31.87,WNW,286,0.0,0.0,86,0.00,,,0.00,VWS V14.01,2013-09-04 13:19:00,
2013-09-04 09:24:00,59.7,55.5,31.87,NNW,344,0.0,0.0,86,0.00,,,0.00,VWS V14.01,2013-09-04 13:24:00,
2013-09-04 09:30:00,60.3,56.4,31.87,West,281,0.0,0.0,87,0.00,,,0.00,VWS V14.01,2013-09-04 13:30:00,
2013-09-04 09:36:00,61.0,57.1,31.87,SW,232,6.0,10.1,87,0.00,,,0.00,VWS V14.01,2013-09-04 13:36:00,
2013-09-04 09:41:00,61.5,57.6,31.87,WSW,249,0.0,6.7,87,0.00,,,0.00,VWS V14.01,2013-09-04 13:41:00,
2013-09-04 09:46:00,61.9,58.0,31.87,SSW,199,0.0,5.6,87,0.00,,,0.00,VWS V14.01,2013-09-04 13:46:00,
2013-09-04 09:52:00,62.4,58.8,31.87,SSW,209,3.4,5.6,88,0.00,,,0.00,VWS V14.01,2013-09-04 13:52:00,
2013-09-04 09:58:00,63.0,59.4,31.87,SSW,193,3.4,6.7,88,0.00,,,0.00,VWS V14.01,2013-09-04 13:58:00,
2013-09-04 10:03:00,63.5,59.9,31.87,SSE,162,3.4,7.8,88,0.00,,,0.00,VWS V14.01,2013-09-04 14:03:00,
2013-09-04 10:09:00,63.9,60.2,31.87,SW,228,0.0,6.7,88,0.00,,,0.00,VWS V14.01,2013-09-04 14:09:00,
2013-09-04 10:14:00,64.2,60.6,31.87,SW,222,0.0,0.0,88,0.00,,,0.00,VWS V14.01,2013-09-04 14:14:00,
2013-09-04 10:20:00,64.6,60.6,31.87,NW,306,0.0,0.0,87,0.00,,,0.00,VWS V14.01,2013-09-04 14:20:00,
2013-09-04 10:25:00,64.9,61.0,31.87,WSW,250,0.0,0.0,87,0.00,,,0.00,VWS V14.01,2013-09-04 14:25:00,
2013-09-04 10:30:00,65.5,61.2,31.87,South,171,0.0,5.6,86,0.00,,,0.00,VWS V14.01,2013-09-04 14:30:00,
2013-09-04 10:36:00,65.8,61.5,31.87,WNW,302,0.0,5.6,86,0.00,,,0.00,VWS V14.01,2013-09-04 14:36:00,
2013-09-04 10:42:00,66.2,61.6,31.87,SW,226,0.0,0.0,85,0.00,,,0.00,VWS V14.01,2013-09-04 14:42:00,
2013-09-04 10:48:00,66.6,61.6,31.87,NNW,342,0.0,6.7,84,0.00,,,0.00,VWS V14.01,2013-09-04 14:48:00,
2013-09-04 10:54:00,66.7,61.1,31.87,SW,214,0.0,6.7,82,0.00,,,0.00,VWS V14.01,2013-09-04 14:54:00,
2013-09-04 10:59:00,67.1,61.4,31.87,NNW,335,0.0,0.0,82,0.00,,,0.00,VWS V14.01,2013-09-04 14:59:00,
2013-09-04 11:06:00,67.6,61.6,31.87,East,85,0.0,0.0,81,0.00,,,0.00,VWS V14.01,2013-09-04 15:06:00,
2013-09-04 11:11:00,68.0,61.6,31.87,North,357,0.0,8.9,80,0.00,,,0.00,VWS V14.01,2013-09-04 15:11:00,
2013-09-04 11:16:00,68.7,61.6,31.87,South,186,0.0,0.0,78,0.00,,,0.00,VWS V14.01,2013-09-04 15:16:00,
2013-09-04 11:21:00,69.1,61.6,31.87,SSW,204,0.0,6.7,77,0.00,,,0.00,VWS V14.01,2013-09-04 15:21:00,
2013-09-04 11:27:00,70.5,62.2,31.87,SW,219,0.0,0.0,75,0.00,,,0.00,VWS V14.01,2013-09-04 15:27:00,
2013-09-04 11:33:00,70.9,61.0,31.87,WNW,292,5.4,10.1,71,0.00,,,0.00,VWS V14.01,2013-09-04 15:33:00,
2013-09-04 11:38:00,71.2,61.0,31.87,WNW,295,0.0,10.1,70,0.00,,,0.00,VWS V14.01,2013-09-04 15:38:00,
2013-09-04 11:44:00,71.4,60.3,31.87,West,268,0.0,0.0,68,0.00,,,0.00,VWS V14.01,2013-09-04 15:44:00,
2013-09-04 11:50:00,72.5,60.5,31.87,NW,311,0.0,12.3,66,0.00,,,0.00,VWS V14.01,2013-09-04 15:50:00,
2013-09-04 11:55:00,73.2,59.9,31.87,WSW,250,0.0,8.9,63,0.00,,,0.00,VWS V14.01,2013-09-04 15:55:00,
2013-09-04 12:01:00,74.5,60.2,31.87,West,260,0.0,0.0,61,0.00,,,0.00,VWS V14.01,2013-09-04 16:01:00,
2013-09-04 12:06:00,75.4,59.1,31.87,WNW,287,0.0,0.0,57,0.00,,,0.00,VWS V14.01,2013-09-04 16:06:00,
2013-09-04 12:11:00,76.5,59.6,31.87,West,270,0.0,0.0,56,0.00,,,0.00,VWS V14.01,2013-09-04 16:11:00,
2013-09-04 12:16:00,77.4,59.4,31.87,NNW,336,0.0,0.0,54,0.00,,,0.00,VWS V14.01,2013-09-04 16:16:00,
2013-09-04 12:21:00,78.3,58.7,31.87,ESE,108,0.0,6.7,51,0.00,,,0.00,VWS V14.01,2013-09-04 16:21:00,
2013-09-04 12:27:00,78.8,56.9,31.87,SW,224,4.0,7.8,47,0.00,,,0.00,VWS V14.01,2013-09-04 16:27:00,
2013-09-04 12:33:00,79.0,56.5,31.87,SW,223,0.0,0.0,46,0.00,,,0.00,VWS V14.01,2013-09-04 16:33:00,
2013-09-04 12:38:00,79.5,55.1,31.87,ESE,115,0.0,0.0,43,0.00,,,0.00,VWS V14.01,2013-09-04 16:38:00,
2013-09-04 12:43:00,80.2,56.4,31.87,SW,230,0.0,0.0,44,0.00,,,0.00,VWS V14.01,2013-09-04 16:43:00,
2013-09-04 12:49:00,80.8,55.6,31.87,WSW,245,0.0,6.7,42,0.00,,,0.00,VWS V14.01,2013-09-04 16:49:00,
2013-09-04 12:54:00,81.0,55.1,31.87,SSW,209,0.0,0.0,41,0.00,,,0.00,VWS V14.01,2013-09-04 16:54:00,
2013-09-04 12:59:00,81.3,55.4,31.87,WNW,293,0.0,0.0,41,0.00,,,0.00,VWS V14.01,2013-09-04 16:59:00,
2013-09-04 13:06:00,81.5,54.2,31.87,WNW,303,5.4,8.9,39,0.00,,,0.00,VWS V14.01,2013-09-04 17:06:00,
2013-09-04 13:11:00,81.9,54.5,31.87,West,264,0.0,0.0,39,0.00,,,0.00,VWS V14.01,2013-09-04 17:11:00,
2013-09-04 13:16:00,82.0,54.0,31.87,North,357,0.0,0.0,38,0.00,,,0.00,VWS V14.01,2013-09-04 17:16:00,
2013-09-04 13:21:00,82.6,54.4,31.87,SW,216,4.7,10.1,38,0.00,,,0.00,VWS V14.01,2013-09-04 17:21:00,
2013-09-04 13:26:00,82.8,53.1,31.87,WSW,241,0.0,6.7,36,0.00,,,0.00,VWS V14.01,2013-09-04 17:26:00,
2013-09-04 13:32:00,82.6,51.4,31.87,SW,234,0.0,12.3,34,0.00,,,0.00,VWS V14.01,2013-09-04 17:32:00,
2013-09-04 13:38:00,82.9,52.5,31.87,WNW,297,4.7,10.1,35,0.00,,,0.00,VWS V14.01,2013-09-04 17:38:00,
2013-09-04 13:43:00,83.3,51.2,31.87,NNW,338,5.4,10.1,33,0.00,,,0.00,VWS V14.01,2013-09-04 17:43:00,
2013-09-04 13:49:00,83.8,52.5,31.87,West,272,0.0,7.8,34,0.00,,,0.00,VWS V14.01,2013-09-04 17:49:00,
2013-09-04 13:54:00,84.2,51.2,31.87,WNW,298,6.0,11.2,32,0.00,,,0.00,VWS V14.01,2013-09-04 17:54:00,
2013-09-04 14:01:00,84.6,51.5,31.87,West,259,4.0,7.8,32,0.00,,,0.00,VWS V14.01,2013-09-04 18:01:00,
2013-09-04 14:06:00,84.9,50.9,31.87,NW,325,6.0,10.1,31,0.00,,,0.00,VWS V14.01,2013-09-04 18:06:00,
2013-09-04 14:11:00,84.7,51.6,31.87,WSW,247,0.0,0.0,32,0.00,,,0.00,VWS V14.01,2013-09-04 18:11:00,
2013-09-04 14:17:00,84.4,50.5,31.87,West,274,3.4,10.1,31,0.00,,,0.00,VWS V14.01,2013-09-04 18:17:00,
2013-09-04 14:22:00,84.7,51.6,31.87,SSW,205,4.0,8.9,32,0.00,,,0.00,VWS V14.01,2013-09-04 18:22:00,
2013-09-04 14:27:00,85.1,51.1,31.87,SSW,212,4.0,8.9,31,0.00,,,0.00,VWS V14.01,2013-09-04 18:27:00,
2013-09-04 14:32:00,84.9,50.9,31.87,WSW,244,0.0,7.8,31,0.00,,,0.00,VWS V14.01,2013-09-04 18:32:00,
2013-09-04 14:37:00,84.9,50.1,31.87,WNW,300,4.7,10.1,30,0.00,,,0.00,VWS V14.01,2013-09-04 18:37:00,
2013-09-04 14:42:00,85.5,51.4,31.87,SSW,203,4.0,6.7,31,0.00,,,0.00,VWS V14.01,2013-09-04 18:42:00,
2013-09-04 14:48:00,86.0,51.0,31.87,WNW,294,7.4,12.3,30,0.00,,,0.00,VWS V14.01,2013-09-04 18:48:00,
2013-09-04 14:54:00,86.2,49.3,31.87,NNW,327,4.7,8.9,28,0.00,,,0.00,VWS V14.01,2013-09-04 18:54:00,
2013-09-04 15:01:00,86.9,50.8,31.87,SSW,210,4.7,10.1,29,0.00,,,0.00,VWS V14.01,2013-09-04 19:01:00,
2013-09-04 15:06:00,87.6,50.5,31.87,North,0,4.7,10.1,28,0.00,,,0.00,VWS V14.01,2013-09-04 19:06:00,
2013-09-04 15:11:00,87.6,50.5,31.87,NW,326,5.4,10.1,28,0.00,,,0.00,VWS V14.01,2013-09-04 19:11:00,
2013-09-04 15:17:00,87.1,50.1,31.87,NW,312,4.7,7.8,28,0.00,,,0.00,VWS V14.01,2013-09-04 19:17:00,
2013-09-04 15:22:00,86.5,49.6,31.87,West,280,4.0,10.1,28,0.00,,,0.00,VWS V14.01,2013-09-04 19:22:00,
2013-09-04 15:28:00,87.1,51.0,31.87,NW,309,4.0,6.7,29,0.00,,,0.00,VWS V14.01,2013-09-04 19:28:00,
2013-09-04 15:34:00,87.8,50.7,31.87,NNW,345,0.0,10.1,28,0.00,,,0.00,VWS V14.01,2013-09-04 19:34:00,
2013-09-04 15:39:00,87.1,50.1,31.87,NNW,344,3.4,8.9,28,0.00,,,0.00,VWS V14.01,2013-09-04 19:39:00,
2013-09-04 15:45:00,87.3,50.2,31.87,WNW,287,4.0,14.5,28,0.00,,,0.00,VWS V14.01,2013-09-04 19:45:00,
2013-09-04 15:51:00,87.1,50.1,31.87,NW,311,4.7,10.1,28,0.00,,,0.00,VWS V14.01,2013-09-04 19:51:00,
2013-09-04 15:57:00,85.5,47.7,31.87,NW,305,4.7,7.8,27,0.00,,,0.00,VWS V14.01,2013-09-04 19:57:00,
2013-09-04 16:03:00,86.0,50.1,31.87,WSW,251,0.0,0.0,29,0.00,,,0.00,VWS V14.01,2013-09-04 20:03:00,
2013-09-04 16:08:00,84.9,49.2,31.87,NW,312,0.0,5.6,29,0.00,,,0.00,VWS V14.01,2013-09-04 20:08:00,
2013-09-04 16:13:00,83.3,47.8,31.87,NW,320,4.0,7.8,29,0.00,,,0.00,VWS V14.01,2013-09-04 20:13:00,
2013-09-04 16:19:00,82.4,47.9,31.87,WNW,298,0.0,6.7,30,0.00,,,0.00,VWS V14.01,2013-09-04 20:19:00,
2013-09-04 16:24:00,82.4,48.8,31.87,SW,225,0.0,0.0,31,0.00,,,0.00,VWS V14.01,2013-09-04 20:24:00,
2013-09-04 16:29:00,82.8,49.1,31.87,SW,232,0.0,8.9,31,0.00,,,0.00,VWS V14.01,2013-09-04 20:29:00,
2013-09-04 16:36:00,82.4,48.8,31.87,North,11,0.0,0.0,31,0.00,,,0.00,VWS V14.01,2013-09-04 20:36:00,
2013-09-04 16:41:00,83.3,49.5,31.87,SSW,213,0.0,0.0,31,0.00,,,0.00,VWS V14.01,2013-09-04 20:41:00,
2013-09-04 16:47:00,84.0,50.2,31.87,NW,314,5.4,8.9,31,0.00,,,0.00,VWS V14.01,2013-09-04 20:47:00,
2013-09-04 16:52:00,84.0,50.2,31.87,SW,227,0.0,0.0,31,0.00,,,0.00,VWS V14.01,2013-09-04 20:52:00,
2013-09-04 16:57:00,84.6,50.6,31.87,NW,305,0.0,10.1,31,0.00,,,0.00,VWS V14.01,2013-09-04 20:57:00,
2013-09-04 17:02:00,84.2,49.4,31.87,NW,312,0.0,5.6,30,0.00,,,0.00,VWS V14.01,2013-09-04 21:02:00,
2013-09-04 17:07:00,82.6,48.0,31.87,WNW,297,4.0,7.8,30,0.00,,,0.00,VWS V14.01,2013-09-04 21:07:00,
2013-09-04 17:13:00,80.8,47.4,31.87,WNW,299,4.7,7.8,31,0.00,,,0.00,VWS V14.01,2013-09-04 21:13:00,
2013-09-04 17:18:00,82.4,49.6,31.87,WNW,289,5.4,8.9,32,0.00,,,0.00,VWS V14.01,2013-09-04 21:18:00,
2013-09-04 17:23:00,82.9,50.1,31.87,WNW,285,4.0,6.7,32,0.00,,,0.00,VWS V14.01,2013-09-04 21:23:00,
2013-09-04 17:29:00,82.6,49.8,31.87,NW,311,0.0,0.0,32,0.00,,,0.00,VWS V14.01,2013-09-04 21:29:00,
2013-09-04 17:34:00,83.3,50.4,31.87,NW,322,0.0,0.0,32,0.00,,,0.00,VWS V14.01,2013-09-04 21:34:00,
2013-09-04 17:41:00,82.9,50.1,31.87,NE,37,0.0,0.0,32,0.00,,,0.00,VWS V14.01,2013-09-04 21:41:00,
2013-09-04 17:46:00,82.4,48.8,31.87,NW,323,0.0,0.0,31,0.00,,,0.00,VWS V14.01,2013-09-04 21:46:00,
2013-09-04 17:51:00,82.9,50.1,31.87,WNW,298,0.0,6.7,32,0.00,,,0.00,VWS V14.01,2013-09-04 21:51:00,
2013-09-04 17:57:00,83.3,49.5,31.87,NW,312,0.0,6.7,31,0.00,,,0.00,VWS V14.01,2013-09-04 21:57:00,
2013-09-04 18:02:00,82.6,48.9,31.87,SW,214,4.0,6.7,31,0.00,,,0.00,VWS V14.01,2013-09-04 22:02:00,
2013-09-04 18:08:00,81.1,47.7,31.87,SSW,195,0.0,0.0,31,0.00,,,0.00,VWS V14.01,2013-09-04 22:08:00,
2013-09-04 18:13:00,81.0,48.4,31.87,SW,224,0.0,0.0,32,0.00,,,0.00,VWS V14.01,2013-09-04 22:13:00,
2013-09-04 18:19:00,80.2,47.7,31.87,SSW,205,0.0,0.0,32,0.00,,,0.00,VWS V14.01,2013-09-04 22:19:00,
2013-09-04 18:25:00,79.2,46.8,31.87,SSW,192,4.0,6.7,32,0.00,,,0.00,VWS V14.01,2013-09-04 22:25:00,
2013-09-04 18:31:00,79.2,47.6,31.87,WNW,300,0.0,0.0,33,0.00,,,0.00,VWS V14.01,2013-09-04 22:31:00,
2013-09-04 18:37:00,78.3,46.8,31.87,SSW,208,0.0,0.0,33,0.00,,,0.00,VWS V14.01,2013-09-04 22:37:00,
2013-09-04 18:42:00,77.5,47.0,31.87,SSW,208,0.0,0.0,34,0.00,,,0.00,VWS V14.01,2013-09-04 22:42:00,
2013-09-04 18:47:00,77.0,46.5,31.87,South,190,0.0,0.0,34,0.00,,,0.00,VWS V14.01,2013-09-04 22:47:00,
2013-09-04 18:53:00,76.5,46.0,31.87,South,190,0.0,0.0,34,0.00,,,0.00,VWS V14.01,2013-09-04 22:53:00,
2013-09-04 18:58:00,75.9,45.6,31.87,South,190,0.0,0.0,34,0.00,,,0.00,VWS V14.01,2013-09-04 22:58:00,
2013-09-04 19:03:00,75.4,45.9,31.87,South,190,0.0,0.0,35,0.00,,,0.00,VWS V14.01,2013-09-04 23:03:00,
2013-09-04 19:08:00,74.8,45.4,31.87,SW,229,0.0,0.0,35,0.00,,,0.00,VWS V14.01,2013-09-04 23:08:00,
2013-09-04 19:14:00,73.9,43.8,31.87,SW,229,0.0,0.0,34,0.00,,,0.00,VWS V14.01,2013-09-04 23:14:00,
2013-09-04 19:19:00,73.4,43.3,31.87,SW,229,0.0,0.0,34,0.00,,,0.00,VWS V14.01,2013-09-04 23:19:00,
2013-09-04 19:25:00,72.7,44.2,31.87,SW,229,0.0,0.0,36,0.00,,,0.00,VWS V14.01,2013-09-04 23:25:00,
2013-09-04 19:31:00,72.1,43.7,31.87,SW,229,0.0,0.0,36,0.00,,,0.00,VWS V14.01,2013-09-04 23:31:00,
2013-09-04 19:36:00,72.0,44.3,31.87,SW,229,0.0,0.0,37,0.00,,,0.00,VWS V14.01,2013-09-04 23:36:00,
2013-09-04 19:41:00,71.6,44.7,31.87,SW,231,0.0,0.0,38,0.00,,,0.00,VWS V14.01,2013-09-04 23:41:00,
2013-09-04 19:47:00,71.1,44.9,31.87,SW,231,0.0,0.0,39,0.00,,,0.00,VWS V14.01,2013-09-04 23:47:00,
2013-09-04 19:52:00,70.7,45.2,31.87,SW,232,0.0,0.0,40,0.00,,,0.00,VWS V14.01,2013-09-04 23:52:00,
2013-09-04 19:58:00,70.3,45.5,31.87,SW,232,0.0,0.0,41,0.00,,,0.00,VWS V14.01,2013-09-04 23:58:00,
2013-09-04 20:03:00,69.6,46.2,31.87,SW,232,0.0,0.0,43,0.00,,,0.00,VWS V14.01,2013-09-05 00:03:00,
2013-09-04 20:08:00,69.1,46.3,31.87,SW,232,0.0,0.0,44,0.00,,,0.00,VWS V14.01,2013-09-05 00:08:00,
2013-09-04 20:14:00,68.4,45.6,31.87,SW,232,0.0,0.0,44,0.00,,,0.00,VWS V14.01,2013-09-05 00:14:00,
2013-09-04 20:19:00,67.8,46.3,31.87,SW,232,0.0,0.0,46,0.00,,,0.00,VWS V14.01,2013-09-05 00:19:00,
2013-09-04 20:25:00,67.3,45.8,31.87,SW,232,0.0,0.0,46,0.00,,,0.00,VWS V14.01,2013-09-05 00:25:00,
2013-09-04 20:31:00,67.1,46.2,31.87,SW,232,0.0,0.0,47,0.00,,,0.00,VWS V14.01,2013-09-05 00:31:00,
2013-09-04 20:36:00,66.7,45.9,31.87,SW,232,0.0,0.0,47,0.00,,,0.00,VWS V14.01,2013-09-05 00:36:00,
2013-09-04 20:42:00,66.4,46.1,31.87,SW,232,0.0,0.0,48,0.00,,,0.00,VWS V14.01,2013-09-05 00:42:00,
2013-09-04 20:47:00,66.2,46.5,31.87,SW,232,0.0,0.0,49,0.00,,,0.00,VWS V14.01,2013-09-05 00:47:00,
2013-09-04 20:53:00,65.8,46.7,31.87,SW,232,0.0,0.0,50,0.00,,,0.00,VWS V14.01,2013-09-05 00:53:00,
2013-09-04 20:59:00,65.8,47.2,31.87,SW,232,0.0,0.0,51,0.00,,,0.00,VWS V14.01,2013-09-05 00:59:00,
2013-09-04 21:04:00,65.5,46.9,31.87,SW,232,0.0,0.0,51,0.00,,,0.00,VWS V14.01,2013-09-05 01:04:00,
2013-09-04 21:10:00,65.3,47.2,31.87,SW,232,0.0,0.0,52,0.00,,,0.00,VWS V14.01,2013-09-05 01:10:00,
2013-09-04 21:15:00,64.9,47.4,31.87,SW,232,0.0,0.0,53,0.00,,,0.00,VWS V14.01,2013-09-05 01:15:00,
2013-09-04 21:20:00,64.6,47.6,31.87,SW,232,0.0,0.0,54,0.00,,,0.00,VWS V14.01,2013-09-05 01:20:00,
2013-09-04 21:26:00,64.2,47.7,31.87,SW,232,0.0,0.0,55,0.00,,,0.00,VWS V14.01,2013-09-05 01:26:00,
2013-09-04 21:32:00,64.0,47.6,31.87,SW,232,0.0,0.0,55,0.00,,,0.00,VWS V14.01,2013-09-05 01:32:00,
2013-09-04 21:37:00,63.9,47.4,31.87,SW,232,0.0,0.0,55,0.00,,,0.00,VWS V14.01,2013-09-05 01:37:00,
2013-09-04 21:42:00,63.9,47.4,31.87,SW,232,0.0,0.0,55,0.00,,,0.00,VWS V14.01,2013-09-05 01:42:00,
2013-09-04 21:47:00,63.7,47.2,31.87,SW,232,0.0,0.0,55,0.00,,,0.00,VWS V14.01,2013-09-05 01:47:00,
2013-09-04 21:53:00,63.3,47.4,31.87,SW,232,0.0,0.0,56,0.00,,,0.00,VWS V14.01,2013-09-05 01:53:00,
2013-09-04 21:58:00,63.1,47.7,31.87,SW,232,0.0,0.0,57,0.00,,,0.00,VWS V14.01,2013-09-05 01:58:00,
2013-09-04 22:03:00,63.0,48.0,31.87,SW,232,0.0,0.0,58,0.00,,,0.00,VWS V14.01,2013-09-05 02:03:00,
2013-09-04 22:08:00,62.8,48.3,31.87,SW,232,0.0,0.0,59,0.00,,,0.00,VWS V14.01,2013-09-05 02:08:00,
2013-09-04 22:14:00,62.6,48.1,31.87,SW,232,0.0,0.0,59,0.00,,,0.00,VWS V14.01,2013-09-05 02:14:00,
2013-09-04 22:19:00,62.4,48.4,31.87,SW,232,0.0,0.0,60,0.00,,,0.00,VWS V14.01,2013-09-05 02:19:00,
2013-09-04 22:24:00,62.2,48.2,31.87,SW,232,0.0,0.0,60,0.00,,,0.00,VWS V14.01,2013-09-05 02:24:00,
2013-09-04 22:30:00,62.1,48.0,31.87,SW,232,0.0,0.0,60,0.00,,,0.00,VWS V14.01,2013-09-05 02:30:00,
2013-09-04 22:35:00,62.1,48.5,31.87,SW,232,0.0,0.0,61,0.00,,,0.00,VWS V14.01,2013-09-05 02:35:00,
2013-09-04 22:41:00,61.9,48.3,31.87,SW,232,0.0,0.0,61,0.00,,,0.00,VWS V14.01,2013-09-05 02:41:00,
2013-09-04 22:46:00,61.7,48.1,31.87,SW,232,0.0,0.0,61,0.00,,,0.00,VWS V14.01,2013-09-05 02:46:00,
2013-09-04 22:52:00,61.5,48.4,31.87,SW,232,0.0,0.0,62,0.00,,,0.00,VWS V14.01,2013-09-05 02:52:00,
2013-09-04 22:58:00,61.5,48.4,31.87,SW,232,0.0,0.0,62,0.00,,,0.00,VWS V14.01,2013-09-05 02:58:00,
2013-09-04 23:03:00,61.3,48.7,31.87,SW,232,0.0,0.0,63,0.00,,,0.00,VWS V14.01,2013-09-05 03:03:00,
2013-09-04 23:09:00,61.2,48.9,31.87,SW,232,0.0,0.0,64,0.00,,,0.00,VWS V14.01,2013-09-05 03:09:00,
2013-09-04 23:14:00,61.0,48.7,31.87,SW,232,0.0,0.0,64,0.00,,,0.00,VWS V14.01,2013-09-05 03:14:00,
2013-09-04 23:20:00,61.0,49.2,31.87,SW,232,0.0,0.0,65,0.00,,,0.00,VWS V14.01,2013-09-05 03:20:00,
2013-09-04 23:26:00,60.6,49.2,31.87,SW,232,0.0,0.0,66,0.00,,,0.00,VWS V14.01,2013-09-05 03:26:00,
2013-09-04 23:32:00,60.8,49.4,31.87,SW,232,0.0,0.0,66,0.00,,,0.00,VWS V14.01,2013-09-05 03:32:00,
2013-09-04 23:37:00,60.8,49.8,31.87,SW,232,0.0,0.0,67,0.00,,,0.00,VWS V14.01,2013-09-05 03:37:00,
2013-09-04 23:42:00,60.8,49.8,31.87,SW,232,0.0,0.0,67,0.00,,,0.00,VWS V14.01,2013-09-05 03:42:00,
2013-09-04 23:47:00,60.6,50.0,31.87,SW,232,0.0,0.0,68,0.00,,,0.00,VWS V14.01,2013-09-05 03:47:00,
2013-09-04 23:53:00,60.4,49.8,31.87,SW,232,0.0,0.0,68,0.00,,,0.00,VWS V14.01,2013-09-05 03:53:00,
2013-09-04 23:59:00,60.4,49.8,31.87,SW,232,0.0,0.0,68,0.00,,,0.00,VWS V14.01,2013-09-05 03:59:00,